Time;durP1;ratioP1;P1;durP2;ratioP2;P2;SDS_P1;SDS_P2;PMS_P1;PMS_P2;Temp;Humidity;BMP_temperature;BMP_pressure;BME280_temperature;BME280_humidity;BME280_pressure;Samples;Min_cycle;Max_cycle;Signal;HPM_P1;HPM_P2
2024/01/30 00:02:23;;;;;;;;;;;;;;;18.18;57.74;103408.34;7402786;19;1655;-73
2024/01/30 00:04:54;;;;;;;;;;;;;;;18.19;57.77;103410.97;7402593;19;1957;-73
2024/01/30 00:07:22;;;;;;;;;;;;;;;18.14;57.98;103410.28;7402453;19;1449;-73
2024/01/30 00:09:51;;;;;;;;;;;;;;;18.18;57.66;103416.38;7404168;19;1238;-74
2024/01/30 00:12:19;;;;;;;;;;;;;;;18.25;57.54;103409.84;7403072;19;1655;-74
2024/01/30 00:14:48;;;;;;;;;;;;;;;18.23;57.65;103411.72;7404517;19;1239;-73
2024/01/30 00:17:16;;;;;;;;;;;;;;;18.24;57.69;103405.41;7404429;19;1847;-81
2024/01/30 00:19:45;;;;;;;;;;;;;;;18.24;57.41;103410.75;7405629;19;1395;-74
2024/01/30 00:22:16;;;;;;;;;;;;;;;18.13;57.59;103419.25;7402659;19;1838;-74
2024/01/30 00:24:44;;;;;;;;;;;;;;;17.66;58.90;103406.88;7399896;19;1505;-73
2024/01/30 00:27:13;;;;;;;;;;;;;;;17.37;59.56;103423.22;7404042;19;1322;-73
2024/01/30 00:29:42;;;;;;;;;;;;;;;17.21;59.96;103412.22;7401615;19;2256;-73
2024/01/30 00:32:10;;;;;;;;;;;;;;;17.13;60.44;103430.38;7401589;19;1800;-73
2024/01/30 00:34:39;;;;;;;;;;;;;;;17.15;60.31;103396.44;7400326;19;1588;-73
2024/01/30 00:37:07;;;;;;;;;;;;;;;17.49;59.89;103407.56;7402235;19;1846;-73
2024/01/30 00:39:38;;;;;;;;;;;;;;;17.80;58.97;103403.63;7401314;19;2084;-74
2024/01/30 00:42:07;;;;;;;;;;;;;;;18.07;58.37;103425.75;7403970;19;1679;-73
2024/01/30 00:44:38;;;;;;;;;;;;;;;18.16;57.87;103408.41;7403528;19;1780;-73
2024/01/30 00:47:06;;;;;;;;;;;;;;;18.24;57.60;103394.69;7401517;19;971;-74
2024/01/30 00:49:35;;;;;;;;;;;;;;;18.15;57.71;103401.31;7401944;19;1054;-73
2024/01/30 00:52:03;;;;;;;;;;;;;;;18.17;57.56;103415.50;7401733;19;1567;-73
2024/01/30 00:54:32;;;;;;;;;;;;;;;18.15;57.58;103401.31;7400362;19;1779;-73
2024/01/30 00:57:03;;;;;;;;;;;;;;;18.13;57.67;103418.41;7392828;19;1868;-73
2024/01/30 00:59:31;;;;;;;;;;;;;;;18.16;57.57;103400.38;7400798;19;1747;-73
2024/01/30 01:02:00;;;;;;;;;;;;;;;18.20;57.51;103393.94;7401891;19;1509;-73
2024/01/30 01:04:29;;;;;;;;;;;;;;;18.17;57.49;103399.44;7400113;19;1494;-73
2024/01/30 01:06:57;;;;;;;;;;;;;;;18.13;57.66;103400.53;7402327;19;1839;-73
2024/01/30 01:09:26;;;;;;;;;;;;;;;18.13;57.62;103400.53;7399618;19;1846;-73
2024/01/30 01:12:04;;;;;;;;;;;;;;;18.12;57.55;103379.16;7399318;19;1663;-81
2024/01/30 01:14:36;;;;;;;;;;;;;;;18.13;57.48;103394.31;7406582;19;1151;-74
2024/01/30 01:17:04;;;;;;;;;;;;;;;18.15;57.63;103422.75;7402310;19;1862;-74
2024/01/30 01:19:32;;;;;;;;;;;;;;;18.12;57.60;103396.09;7402191;19;1876;-73
2024/01/30 01:22:01;;;;;;;;;;;;;;;18.11;57.87;103399.72;7404904;19;1791;-81
2024/01/30 01:24:36;;;;;;;;;;;;;;;18.12;57.63;103404.13;7406098;19;1662;-81
2024/01/30 01:27:05;;;;;;;;;;;;;;;18.13;57.52;103392.47;7407013;19;1754;-81
2024/01/30 01:29:36;;;;;;;;;;;;;;;18.16;57.52;103397.69;7402057;19;1525;-73
2024/01/30 01:32:05;;;;;;;;;;;;;;;18.14;57.51;103399.56;7398460;19;1672;-73
2024/01/30 01:34:33;;;;;;;;;;;;;;;18.14;57.50;103394.22;7400097;19;1032;-73
2024/01/30 01:37:02;;;;;;;;;;;;;;;18.17;57.46;103403.94;7403430;19;1853;-82
2024/01/30 01:39:30;;;;;;;;;;;;;;;18.18;57.58;103413.69;7402621;19;1137;-81
2024/01/30 01:41:59;;;;;;;;;;;;;;;18.12;57.55;103400.56;7400513;19;1062;-73
2024/01/30 01:44:27;;;;;;;;;;;;;;;18.08;57.63;103395.38;7399291;19;1838;-73
2024/01/30 01:46:59;;;;;;;;;;;;;;;18.15;57.34;103385.25;7399079;19;1379;-81
2024/01/30 01:49:28;;;;;;;;;;;;;;;18.15;57.54;103379.91;7398066;19;1659;-73
2024/01/30 01:51:58;;;;;;;;;;;;;;;18.17;57.47;103394.09;7399298;19;1885;-81
2024/01/30 01:54:28;;;;;;;;;;;;;;;18.17;57.42;103403.94;7400254;19;1855;-83
2024/01/30 01:56:57;;;;;;;;;;;;;;;18.17;57.54;103386.06;7388147;19;1875;-81
2024/01/30 01:59:27;;;;;;;;;;;;;;;18.12;57.29;103385.38;7400313;19;1733;-81
2024/01/30 02:01:58;;;;;;;;;;;;;;;18.19;57.43;103386.88;7398971;19;1950;-81
2024/01/30 02:04:26;;;;;;;;;;;;;;;18.16;57.38;103380.75;7397658;19;1847;-80
2024/01/30 02:06:55;;;;;;;;;;;;;;;18.15;57.50;103398.66;7399400;19;1412;-81
2024/01/30 02:09:23;;;;;;;;;;;;;;;18.16;57.39;103403.03;7400347;19;1653;-81
2024/01/30 02:11:52;;;;;;;;;;;;;;;18.18;57.25;103390.47;7401746;19;1129;-81
2024/01/30 02:14:20;;;;;;;;;;;;;;;18.16;57.32;103388.78;7401185;19;1081;-81
2024/01/30 02:16:48;;;;;;;;;;;;;;;18.13;57.39;103403.19;7400497;19;1873;-82
2024/01/30 02:19:19;;;;;;;;;;;;;;;17.57;57.43;103302.06;7398595;19;1564;-81
2024/01/30 02:21:56;;;;;;;;;;;;;;;18.19;57.40;103402.94;7398948;19;955;-80
2024/01/30 02:24:26;;;;;;;;;;;;;;;18.21;57.18;103382.31;7399120;19;1779;-81
2024/01/30 02:26:54;;;;;;;;;;;;;;;18.15;57.36;103395.97;7399942;19;1493;-81
2024/01/30 02:29:23;;;;;;;;;;;;;;;18.12;57.41;103396.09;7396018;19;1406;-81
2024/01/30 02:31:52;;;;;;;;;;;;;;;18.19;57.39;103394.91;7400128;19;1574;-81
2024/01/30 02:34:22;;;;;;;;;;;;;;;18.12;57.40;103377.34;7400404;19;1568;-81
2024/01/30 02:36:57;;;;;;;;;;;;;;;18.11;57.29;103383.66;7396486;19;1902;-82
2024/01/30 02:39:25;;;;;;;;;;;;;;;18.07;57.44;103376.69;7399917;19;1759;-81
2024/01/30 02:41:54;;;;;;;;;;;;;;;18.02;57.66;103376.00;7396215;19;1925;-81
2024/01/30 02:44:24;;;;;;;;;;;;;;;18.07;57.57;103382.03;7401636;19;1037;-81
2024/01/30 02:46:55;;;;;;;;;;;;;;;18.16;57.28;103386.97;7400746;19;1548;-81
2024/01/30 02:49:23;;;;;;;;;;;;;;;18.27;57.00;103390.06;7399443;19;1486;-79
2024/01/30 02:51:57;;;;;;;;;;;;;;;18.24;57.13;103406.28;7397649;19;1473;-81
2024/01/30 02:54:25;;;;;;;;;;;;;;;18.21;57.34;103385.00;7397763;19;1826;-81
2024/01/30 02:56:53;;;;;;;;;;;;;;;18.16;57.38;103384.31;7385876;19;1855;-81
2024/01/30 02:59:23;;;;;;;;;;;;;;;18.07;57.32;103361.47;7397067;19;1822;-81
2024/01/30 03:01:51;;;;;;;;;;;;;;;18.13;57.13;103376.41;7397889;19;1734;-81
2024/01/30 03:04:21;;;;;;;;;;;;;;;18.12;57.33;103384.50;7395365;19;1843;-81
2024/01/30 03:06:49;;;;;;;;;;;;;;;18.15;57.32;103368.31;7401028;19;1734;-81
2024/01/30 03:09:21;;;;;;;;;;;;;;;18.15;57.31;103384.41;7404285;19;1847;-81
2024/01/30 03:11:58;;;;;;;;;;;;;;;18.10;57.70;103376.53;7406408;19;1029;-81
2024/01/30 03:14:27;;;;;;;;;;;;;;;18.08;57.72;103384.66;7405444;19;958;-81
2024/01/30 03:16:55;;;;;;;;;;;;;;;18.12;57.39;103374.66;7406728;19;1830;-81
2024/01/30 03:19:24;;;;;;;;;;;;;;;18.04;57.53;103363.41;7406939;19;1579;-81
2024/01/30 03:21:52;;;;;;;;;;;;;;;18.13;57.44;103371.06;7406137;19;1961;-81
2024/01/30 03:24:23;;;;;;;;;;;;;;;18.13;57.41;103371.06;7407100;19;1459;-81
2024/01/30 03:26:53;;;;;;;;;;;;;;;18.19;57.35;103376.16;7406421;19;1736;-81
2024/01/30 03:29:21;;;;;;;;;;;;;;;18.11;57.38;103370.25;7405137;19;1926;-81
2024/01/30 03:31:50;;;;;;;;;;;;;;;18.09;57.42;103367.63;7407441;19;1803;-81
2024/01/30 03:34:18;;;;;;;;;;;;;;;17.82;57.99;103360.75;7408454;19;1144;-81
2024/01/30 03:36:47;;;;;;;;;;;;;;;17.54;58.97;103371.72;7407318;19;1874;-81
2024/01/30 03:39:15;;;;;;;;;;;;;;;17.32;59.58;103363.69;7407808;19;2217;-81
2024/01/30 03:41:47;;;;;;;;;;;;;;;17.10;60.00;103362.72;7404175;19;1472;-81
2024/01/30 03:44:16;;;;;;;;;;;;;;;17.09;60.17;103369.03;7407050;19;1113;-73
2024/01/30 03:46:44;;;;;;;;;;;;;;;17.51;59.19;103356.69;7405628;19;1671;-73
2024/01/30 03:49:14;;;;;;;;;;;;;;;17.84;58.42;103359.78;7406560;19;1485;-73
2024/01/30 03:51:43;;;;;;;;;;;;;;;18.02;58.01;103373.31;7404684;19;1910;-73
2024/01/30 03:54:11;;;;;;;;;;;;;;;17.99;57.88;103352.06;7404901;19;1779;-73
2024/01/30 03:56:40;;;;;;;;;;;;;;;18.01;57.88;103366.25;7391504;19;1852;-73
2024/01/30 03:59:11;;;;;;;;;;;;;;;18.11;57.64;103370.25;7401906;19;1658;-74
2024/01/30 04:01:39;;;;;;;;;;;;;;;18.16;57.53;103381.63;7404947;19;1511;-72
2024/01/30 04:04:07;;;;;;;;;;;;;;;18.32;56.91;103356.84;7400365;19;1439;-73
2024/01/30 04:06:37;;;;;;;;;;;;;;;18.46;56.76;103368.72;7404164;19;1647;-73
2024/01/30 04:09:05;;;;;;;;;;;;;;;18.54;56.44;103354.94;7404362;19;1055;-81
2024/01/30 04:11:34;;;;;;;;;;;;;;;18.72;56.22;103363.09;7403105;19;1608;-81
2024/01/30 04:14:03;;;;;;;;;;;;;;;18.54;56.48;103359.44;7407000;19;1944;-81
2024/01/30 04:16:34;;;;;;;;;;;;;;;18.42;56.68;103366.22;7406602;19;1819;-81
2024/01/30 04:19:02;;;;;;;;;;;;;;;18.31;57.11;103374.75;7401416;19;1901;-81
2024/01/30 04:21:31;;;;;;;;;;;;;;;18.32;57.12;103380.97;7405723;19;1453;-73
2024/01/30 04:24:00;;;;;;;;;;;;;;;18.25;57.29;103389.28;7402146;19;1593;-81
2024/01/30 04:26:29;;;;;;;;;;;;;;;18.28;57.34;103372.19;7403204;19;1887;-81
2024/01/30 04:28:58;;;;;;;;;;;;;;;18.29;57.11;103371.25;7401351;19;1415;-81
2024/01/30 04:31:26;;;;;;;;;;;;;;;18.32;57.29;103397.03;7403452;19;1479;-81
2024/01/30 04:33:59;;;;;;;;;;;;;;;18.32;57.16;103367.56;7404313;19;1477;-81
2024/01/30 04:36:27;;;;;;;;;;;;;;;18.37;57.06;103395.91;7403809;19;1328;-81
2024/01/30 04:38:55;;;;;;;;;;;;;;;18.45;56.82;103393.75;7401929;19;1850;-81
2024/01/30 04:41:24;;;;;;;;;;;;;;;18.42;56.97;103387.66;7404104;19;1471;-81
2024/01/30 04:43:52;;;;;;;;;;;;;;;18.51;56.86;103381.91;7402745;19;1928;-81
2024/01/30 04:46:20;;;;;;;;;;;;;;;18.48;56.86;103387.38;7402903;19;1937;-81
2024/01/30 04:48:50;;;;;;;;;;;;;;;18.44;57.21;103380.41;7402747;19;1576;-81
2024/01/30 04:51:21;;;;;;;;;;;;;;;18.37;57.37;103381.66;7401328;19;1478;-81
2024/01/30 04:53:50;;;;;;;;;;;;;;;18.36;57.52;103391.47;7400890;19;1488;-81
2024/01/30 04:56:20;;;;;;;;;;;;;;;18.37;57.57;103378.97;7401464;19;1329;-82
2024/01/30 04:58:56;;;;;;;;;;;;;;;18.44;57.67;103389.34;7394204;19;1842;-81
2024/01/30 05:01:24;;;;;;;;;;;;;;;18.42;56.98;103384.97;7402429;19;1557;-80
2024/01/30 05:03:58;;;;;;;;;;;;;;;17.89;55.91;103365.81;7402763;19;1488;-81
2024/01/30 05:06:29;;;;;;;;;;;;;;;17.57;57.27;103379.63;7402398;19;1808;-81
2024/01/30 05:08:58;;;;;;;;;;;;;;;17.31;57.75;103386.91;7401982;19;1073;-72
2024/01/30 05:11:26;;;;;;;;;;;;;;;17.50;57.30;103387.03;7400683;19;1580;-72
2024/01/30 05:14:14;;;;;;;;;;;;;;;17.89;56.71;103400.63;7400382;19;1529;-73
2024/01/30 05:16:46;;;;;;;;;;;;;;;18.24;55.78;103403.63;7399436;19;1578;-72
2024/01/30 05:19:15;;;;;;;;;;;;;;;18.50;55.11;103385.50;7398681;19;1894;-73
2024/01/30 05:21:46;;;;;;;;;;;;;;;18.54;54.99;103383.56;7398776;19;1858;-73
2024/01/30 05:24:14;;;;;;;;;;;;;;;18.42;55.18;103384.97;7398466;19;1493;-73
2024/01/30 05:26:43;;;;;;;;;;;;;;;18.45;55.12;103393.75;7396691;19;1168;-73
2024/01/30 05:29:11;;;;;;;;;;;;;;;18.44;55.08;103402.75;7398256;19;1429;-73
2024/01/30 05:31:42;;;;;;;;;;;;;;;18.42;55.20;103384.97;7398187;19;1711;-73
2024/01/30 05:34:11;;;;;;;;;;;;;;;18.35;55.28;103396.91;7400654;19;1849;-73
2024/01/30 05:36:39;;;;;;;;;;;;;;;18.32;55.60;103394.34;7401641;19;1145;-73
2024/01/30 05:39:10;;;;;;;;;;;;;;;18.40;55.12;103395.78;7399031;19;1853;-73
2024/01/30 05:41:38;;;;;;;;;;;;;;;18.39;55.25;103398.53;7397637;19;1003;-73
2024/01/30 05:44:09;;;;;;;;;;;;;;;18.38;55.31;103403.03;7402127;19;1122;-73
2024/01/30 05:46:38;;;;;;;;;;;;;;;18.41;55.10;103385.94;7402444;19;1203;-73
2024/01/30 05:49:06;;;;;;;;;;;;;;;18.44;55.06;103402.75;7399405;19;1436;-72
2024/01/30 05:51:35;;;;;;;;;;;;;;;18.42;55.09;103409.97;7398670;19;1826;-73
2024/01/30 05:54:04;;;;;;;;;;;;;;;18.40;55.12;103408.28;7398421;19;1776;-73
2024/01/30 05:56:36;;;;;;;;;;;;;;;18.38;55.07;103408.38;7397346;19;1013;-72
2024/01/30 05:59:05;;;;;;;;;;;;;;;18.43;55.03;103401.00;7388450;19;1950;-72
2024/01/30 06:01:34;;;;;;;;;;;;;;;18.47;54.94;103407.94;7400101;19;1742;-72
2024/01/30 06:04:02;;;;;;;;;;;;;;;18.42;55.14;103415.34;7395928;19;1074;-73
2024/01/30 06:06:32;;;;;;;;;;;;;;;18.51;54.87;103419.41;7401679;19;1029;-72
2024/01/30 06:09:00;;;;;;;;;;;;;;;18.53;54.72;103409.50;7400851;19;986;-73
2024/01/30 06:11:29;;;;;;;;;;;;;;;18.45;54.91;103400.94;7397914;19;1970;-73
2024/01/30 06:14:02;;;;;;;;;;;;;;;18.41;54.90;103407.38;7398742;19;1849;-73
2024/01/30 06:16:31;;;;;;;;;;;;;;;18.49;54.71;103416.78;7399841;19;1443;-73
2024/01/30 06:19:00;;;;;;;;;;;;;;;18.42;55.01;103419.81;7400188;19;1854;-72
2024/01/30 06:21:28;;;;;;;;;;;;;;;18.40;55.01;103408.28;7397612;19;1796;-72
2024/01/30 06:23:56;;;;;;;;;;;;;;;18.47;54.74;103421.34;7397640;19;1866;-73
2024/01/30 06:26:25;;;;;;;;;;;;;;;18.49;54.54;103418.59;7396389;19;1858;-73
2024/01/30 06:28:53;;;;;;;;;;;;;;;18.40;55.02;103430.63;7399945;19;943;-73
2024/01/30 06:31:26;;;;;;;;;;;;;;;18.35;55.09;103426.38;7398811;19;1759;-73
2024/01/30 06:33:54;;;;;;;;;;;;;;;18.38;54.92;103424.44;7397883;19;1501;-73
2024/01/30 06:36:23;;;;;;;;;;;;;;;18.40;54.87;103425.25;7396887;19;1118;-72
2024/01/30 06:38:53;;;;;;;;;;;;;;;18.38;54.91;103423.56;7396075;19;1868;-73
2024/01/30 06:41:22;;;;;;;;;;;;;;;18.39;54.84;103415.47;7397623;19;1849;-73
2024/01/30 06:43:53;;;;;;;;;;;;;;;18.47;54.63;103420.50;7397401;19;939;-74
2024/01/30 06:46:21;;;;;;;;;;;;;;;18.49;54.64;103427.50;7396341;19;1908;-74
2024/01/30 06:48:52;;;;;;;;;;;;;;;18.61;54.41;103426.09;7396843;19;1851;-73
2024/01/30 06:51:20;;;;;;;;;;;;;;;18.14;55.35;103422.81;7396430;19;1200;-73
2024/01/30 06:53:53;;;;;;;;;;;;;;;17.76;56.36;103428.78;7393989;19;947;-72
2024/01/30 06:56:22;;;;;;;;;;;;;;;17.46;57.00;103434.41;7397980;19;1089;-73
2024/01/30 06:58:53;;;;;;;;;;;;;;;17.57;57.02;103431.34;7386948;19;1856;-73
2024/01/30 07:01:21;;;;;;;;;;;;;;;18.01;56.15;103433.19;7398193;19;1037;-73
2024/01/30 07:03:52;;;;;;;;;;;;;;;18.35;55.30;103437.09;7399061;19;1073;-73
2024/01/30 07:06:22;;;;;;;;;;;;;;;18.69;54.50;103440.03;7397697;19;1662;-73
2024/01/30 07:08:51;;;;;;;;;;;;;;;18.78;54.16;103443.22;7395633;19;1922;-73
2024/01/30 07:11:25;;;;;;;;;;;;;;;18.71;54.04;103428.38;7396967;19;1862;-73
2024/01/30 07:13:53;;;;;;;;;;;;;;;18.65;54.21;103438.44;7396777;19;1588;-73
2024/01/30 07:16:22;;;;;;;;;;;;;;;18.62;54.38;103427.84;7396025;19;1497;-72
2024/01/30 07:18:53;;;;;;;;;;;;;;;18.63;54.41;103450.16;7396355;19;1860;-73
2024/01/30 07:21:25;;;;;;;;;;;;;;;18.68;54.23;103437.41;7397310;19;1277;-73
2024/01/30 07:23:53;;;;;;;;;;;;;;;18.63;54.40;103440.31;7398235;19;1438;-72
2024/01/30 07:26:23;;;;;;;;;;;;;;;18.67;54.38;103439.22;7397131;19;996;-73
2024/01/30 07:28:51;;;;;;;;;;;;;;;18.69;54.31;103437.34;7393089;19;1045;-73
2024/01/30 07:31:20;;;;;;;;;;;;;;;18.67;54.41;103449.09;7394679;19;1936;-73
2024/01/30 07:33:49;;;;;;;;;;;;;;;18.71;54.25;103436.44;7395487;19;1460;-73
2024/01/30 07:36:20;;;;;;;;;;;;;;;18.76;54.10;103429.94;7393588;19;1505;-73
2024/01/30 07:38:48;;;;;;;;;;;;;;;18.69;54.38;103434.66;7396406;19;1842;-73
2024/01/30 07:41:17;;;;;;;;;;;;;;;18.73;54.07;103423.81;7397775;19;935;-72
2024/01/30 07:43:46;;;;;;;;;;;;;;;18.67;54.17;103431.19;7395723;19;1208;-72
2024/01/30 07:46:15;;;;;;;;;;;;;;;18.74;54.20;103441.63;7395161;19;1443;-72
2024/01/30 07:48:43;;;;;;;;;;;;;;;18.85;53.97;103440.25;7396137;19;1297;-80
2024/01/30 07:51:13;;;;;;;;;;;;;;;18.76;54.13;103416.53;7396405;19;1766;-80
2024/01/30 07:53:44;;;;;;;;;;;;;;;18.82;54.02;103439.50;7396235;19;1736;-80
2024/01/30 07:56:13;;;;;;;;;;;;;;;18.82;53.98;103423.41;7403114;19;1446;-80
2024/01/30 07:58:41;;;;;;;;;;;;;;;18.85;54.03;103434.03;7394651;19;1849;-80
2024/01/30 08:01:12;;;;;;;;;;;;;;;18.89;53.99;103446.34;7405672;19;1457;-81
2024/01/30 08:03:41;;;;;;;;;;;;;;;18.88;53.82;103409.75;7406811;19;1468;-80
2024/01/30 08:06:09;;;;;;;;;;;;;;;18.91;53.88;103433.75;7405169;19;1441;-81
2024/01/30 08:08:46;;;;;;;;;;;;;;;18.86;54.13;103438.44;7404885;19;1518;-81
2024/01/30 08:11:15;;;;;;;;;;;;;;;18.42;54.96;103462.66;7402255;19;1180;-73
2024/01/30 08:13:43;;;;;;;;;;;;;;;18.04;55.72;103431.22;7404858;19;1465;-73
2024/01/30 08:16:11;;;;;;;;;;;;;;;17.77;56.10;103409.13;7406820;19;1631;-73
2024/01/30 08:18:40;;;;;;;;;;;;;;;17.68;56.23;103428.22;7413127;19;1834;-73
2024/01/30 08:21:09;;;;;;;;;;;;;;;17.62;56.46;103433.81;7411474;19;1627;-73
2024/01/30 08:23:37;;;;;;;;;;;;;;;17.55;56.99;103437.66;7407893;19;1243;-73
2024/01/30 08:26:08;;;;;;;;;;;;;;;17.52;57.22;103429.78;7408315;19;1266;-73
2024/01/30 08:28:38;;;;;;;;;;;;;;;17.50;57.49;103441.41;7407549;19;1106;-73
2024/01/30 08:31:07;;;;;;;;;;;;;;;17.49;57.75;103433.44;7408126;19;1884;-72
2024/01/30 08:33:35;;;;;;;;;;;;;;;17.46;57.67;103442.44;7407195;19;1596;-74
2024/01/30 08:36:03;;;;;;;;;;;;;;;17.45;57.56;103432.69;7404539;19;1490;-73
2024/01/30 08:38:32;;;;;;;;;;;;;;;17.42;57.76;103430.13;7404005;19;1829;-73
2024/01/30 08:41:00;;;;;;;;;;;;;;;17.38;57.73;103433.00;7414993;19;1854;-74
2024/01/30 08:43:34;;;;;;;;;;;;;;;17.40;57.79;103445.38;7407241;19;1598;-74
2024/01/30 08:46:05;;;;;;;;;;;;;;;17.42;57.81;103442.63;7407380;19;1166;-73
2024/01/30 08:48:35;;;;;;;;;;;;;;;17.41;57.88;103435.56;7405044;19;1134;-81
2024/01/30 08:51:03;;;;;;;;;;;;;;;17.37;58.18;103439.25;7405434;19;1466;-81
2024/01/30 08:53:32;;;;;;;;;;;;;;;17.31;58.33;103453.78;7408799;19;1683;-81
2024/01/30 08:56:00;;;;;;;;;;;;;;;17.28;58.53;103446.72;7409129;19;1886;-81
2024/01/30 08:58:28;;;;;;;;;;;;;;;17.29;58.31;103439.59;7399771;19;1843;-81
2024/01/30 09:01:00;;;;;;;;;;;;;;;17.26;58.64;103440.53;7406303;19;1490;-80
2024/01/30 09:03:28;;;;;;;;;;;;;;;17.30;58.46;103443.97;7409500;19;2004;-73
2024/01/30 09:05:58;;;;;;;;;;;;;;;17.33;58.19;103441.22;7406683;19;1489;-81
2024/01/30 09:08:26;;;;;;;;;;;;;;;17.36;58.25;103422.34;7409218;19;1589;-81
2024/01/30 09:10:54;;;;;;;;;;;;;;;17.28;58.47;103429.81;7409787;19;1806;-81
2024/01/30 09:13:23;;;;;;;;;;;;;;;17.34;58.25;103426.88;7408860;19;1279;-73
2024/01/30 09:15:52;;;;;;;;;;;;;;;17.33;58.13;103430.50;7404081;19;1406;-71
2024/01/30 09:18:24;;;;;;;;;;;;;;;17.36;58.28;103425.03;7403937;19;1489;-73
2024/01/30 09:20:52;;;;;;;;;;;;;;;17.36;58.31;103419.66;7407685;19;1578;-81
2024/01/30 09:23:21;;;;;;;;;;;;;;;17.33;58.36;103422.47;7411176;19;1743;-81
2024/01/30 09:25:50;;;;;;;;;;;;;;;17.24;58.70;103420.16;7399791;19;1921;-81
2024/01/30 09:28:18;;;;;;;;;;;;;;;17.24;58.54;103414.81;7406549;19;1090;-81
2024/01/30 09:30:47;;;;;;;;;;;;;;;17.27;58.56;103428.06;7405878;19;1937;-81
2024/01/30 09:33:16;;;;;;;;;;;;;;;17.14;58.51;103432.13;7407093;19;1341;-81
2024/01/30 09:35:47;;;;;;;;;;;;;;;17.06;59.00;103419.06;7404148;19;1522;-81
2024/01/30 09:38:15;;;;;;;;;;;;;;;17.05;58.85;103414.63;7404958;19;1488;-81
2024/01/30 09:40:44;;;;;;;;;;;;;;;17.06;58.78;103408.38;7405299;19;1849;-82
2024/01/30 09:43:19;;;;;;;;;;;;;;;17.06;58.78;103403.88;7405492;19;1290;-81
2024/01/30 09:45:48;;;;;;;;;;;;;;;17.04;58.86;103400.38;7411657;19;1331;-81
2024/01/30 09:48:16;;;;;;;;;;;;;;;17.01;58.86;103432.59;7409306;19;1409;-80
2024/01/30 09:50:48;;;;;;;;;;;;;;;17.03;58.89;103371.94;7410707;19;1547;-81
2024/01/30 09:53:17;;;;;;;;;;;;;;;17.08;58.62;103402.00;7410186;19;1870;-81
2024/01/30 09:55:48;;;;;;;;;;;;;;;17.08;58.53;103407.38;7410040;19;1089;-81
2024/01/30 09:58:17;;;;;;;;;;;;;;;17.06;58.55;103411.91;7400397;19;1050;-81
2024/01/30 10:00:45;;;;;;;;;;;;;;;17.09;58.49;103392.22;7405435;19;1833;-81
2024/01/30 10:03:14;;;;;;;;;;;;;;;17.13;58.19;103383.16;7405361;19;1744;-81
2024/01/30 10:05:43;;;;;;;;;;;;;;;17.14;58.33;103397.38;7404467;19;1875;-81
2024/01/30 10:08:14;;;;;;;;;;;;;;;17.05;57.87;103382.53;7402176;19;1536;-82
2024/01/30 10:10:44;;;;;;;;;;;;;;;17.03;58.80;103371.94;7403160;19;1144;-81
2024/01/30 10:13:13;;;;;;;;;;;;;;;17.10;58.52;103381.44;7406926;19;1426;-81
2024/01/30 10:15:41;;;;;;;;;;;;;;;17.67;57.13;103367.63;7404347;19;1629;-81
2024/01/30 10:18:11;;;;;;;;;;;;;;;18.42;55.63;103375.16;7393742;19;1611;-80
2024/01/30 10:20:39;;;;;;;;;;;;;;;18.95;54.42;103370.13;7398275;19;1863;-80
2024/01/30 10:23:08;;;;;;;;;;;;;;;18.62;54.94;103352.81;7399398;19;1490;-80
2024/01/30 10:25:40;;;;;;;;;;;;;;;18.07;56.24;103377.53;7401156;19;1041;-80
2024/01/30 10:28:08;;;;;;;;;;;;;;;18.14;56.18;103383.50;7398707;19;1830;-80
2024/01/30 10:30:37;;;;;;;;;;;;;;;18.40;55.63;103376.13;7396683;19;1435;-80
2024/01/30 10:33:05;;;;;;;;;;;;;;;18.62;55.09;103352.81;7396889;19;1937;-80
2024/01/30 10:35:39;;;;;;;;;;;;;;;18.88;54.43;103358.81;7397486;19;1790;-81
2024/01/30 10:38:11;;;;;;;;;;;;;;;18.96;54.12;103361.13;7398607;19;1059;-80
2024/01/30 10:40:42;;;;;;;;;;;;;;;18.95;54.10;103354.03;7394991;19;1914;-80
2024/01/30 10:43:13;;;;;;;;;;;;;;;18.88;54.21;103351.63;7398479;19;1426;-81
2024/01/30 10:45:43;;;;;;;;;;;;;;;18.89;54.50;103365.91;7399156;19;1118;-80
2024/01/30 10:48:12;;;;;;;;;;;;;;;18.85;54.52;103353.59;7398667;19;1497;-80
2024/01/30 10:50:43;;;;;;;;;;;;;;;18.84;54.50;103354.50;7395529;19;1472;-81
2024/01/30 10:53:12;;;;;;;;;;;;;;;18.81;54.03;103346.63;7397745;19;1603;-80
2024/01/30 10:55:43;;;;;;;;;;;;;;;18.73;54.12;103335.38;7399711;19;1146;-81
2024/01/30 10:58:15;;;;;;;;;;;;;;;18.75;54.16;103331.66;7397130;19;1065;-80
2024/01/30 11:00:43;;;;;;;;;;;;;;;18.75;54.18;103345.06;7394831;19;1838;-81
2024/01/30 11:03:12;;;;;;;;;;;;;;;18.81;54.60;103346.63;7398838;19;1910;-81
2024/01/30 11:05:43;;;;;;;;;;;;;;;18.81;54.83;103331.41;7399445;19;1484;-81
2024/01/30 11:08:15;;;;;;;;;;;;;;;18.85;55.04;103324.09;7397740;19;1862;-82
2024/01/30 11:10:49;;;;;;;;;;;;;;;18.79;54.92;103332.41;7397488;19;1849;-80
2024/01/30 11:13:21;;;;;;;;;;;;;;;18.96;54.59;103323.56;7398205;19;1716;-82
2024/01/30 11:15:50;;;;;;;;;;;;;;;18.97;53.65;103322.66;7396968;19;1586;-80
2024/01/30 11:18:25;;;;;;;;;;;;;;;19.08;53.43;103306.94;7399099;19;1582;-73
2024/01/30 11:20:54;;;;;;;;;;;;;;;19.08;53.64;103313.16;7393404;19;1836;-73
2024/01/30 11:23:24;;;;;;;;;;;;;;;19.18;53.67;103318.06;7398930;19;1435;-80
2024/01/30 11:25:55;;;;;;;;;;;;;;;19.09;53.67;103314.00;7396610;19;1480;-73
2024/01/30 11:28:26;;;;;;;;;;;;;;;19.04;53.68;103303.50;7390069;19;1571;-72
2024/01/30 11:31:05;;;;;;;;;;;;;;;19.00;53.89;103309.97;7403664;19;1034;-73
2024/01/30 11:33:34;;;;;;;;;;;;;;;19.00;53.94;103309.97;7403557;19;1898;-73
2024/01/30 11:36:03;;;;;;;;;;;;;;;18.97;53.95;103291.34;7404026;19;1497;-73
2024/01/30 11:38:32;;;;;;;;;;;;;;;18.95;53.96;103287.84;7403994;19;1500;-73
2024/01/30 11:41:03;;;;;;;;;;;;;;;18.92;54.26;103301.44;7402869;19;1857;-73
2024/01/30 11:43:34;;;;;;;;;;;;;;;18.94;54.20;103295.97;7404045;19;1834;-80
2024/01/30 11:46:03;;;;;;;;;;;;;;;18.96;54.09;103286.03;7402523;19;1933;-74
2024/01/30 11:48:34;;;;;;;;;;;;;;;18.90;54.20;103281.88;7403354;19;1399;-74
2024/01/30 11:51:03;;;;;;;;;;;;;;;18.99;53.71;103293.94;7402058;19;1354;-74
2024/01/30 11:53:31;;;;;;;;;;;;;;;19.00;53.77;103293.88;7404023;19;1312;-74
2024/01/30 11:55:59;;;;;;;;;;;;;;;18.94;54.25;103285.25;7403654;19;1404;-73
2024/01/30 11:58:28;;;;;;;;;;;;;;;18.94;54.06;103295.97;7399862;19;1485;-73
2024/01/30 12:00:57;;;;;;;;;;;;;;;18.88;54.12;103275.72;7395113;19;1839;-80
2024/01/30 12:03:26;;;;;;;;;;;;;;;18.84;53.72;103277.66;7404793;19;1507;-80
2024/01/30 12:06:03;;;;;;;;;;;;;;;18.70;52.72;103296.16;7403813;19;1853;-80
2024/01/30 12:08:31;;;;;;;;;;;;;;;18.61;51.22;103265.31;7401603;19;1983;-80
2024/01/30 12:11:01;;;;;;;;;;;;;;;18.56;50.53;103283.44;7404077;19;1407;-80
2024/01/30 12:13:31;;;;;;;;;;;;;;;18.62;49.72;103261.69;7405824;19;1704;-80
2024/01/30 12:16:02;;;;;;;;;;;;;;;18.58;49.86;103269.94;7405910;19;1477;-80
2024/01/30 12:18:31;;;;;;;;;;;;;;;18.71;49.79;103264.88;7404515;19;1398;-74
2024/01/30 12:21:00;;;;;;;;;;;;;;;18.73;49.91;103260.31;7399569;19;1960;-74
2024/01/30 12:23:28;;;;;;;;;;;;;;;18.77;50.21;103264.59;7405768;19;1862;-80
2024/01/30 12:25:57;;;;;;;;;;;;;;;18.81;50.40;103266.22;7404473;19;1053;-80
2024/01/30 12:28:25;;;;;;;;;;;;;;;18.84;50.37;103266.94;7402016;19;1857;-73
2024/01/30 12:30:57;;;;;;;;;;;;;;;18.86;50.86;103253.44;7394952;19;1257;-80
2024/01/30 12:33:29;;;;;;;;;;;;;;;18.92;50.71;103247.81;7399900;19;1516;-73
2024/01/30 12:35:57;;;;;;;;;;;;;;;18.95;50.78;103262.88;7401234;19;1421;-73
2024/01/30 12:38:27;;;;;;;;;;;;;;;18.94;51.06;103243.22;7402944;19;1273;-74
2024/01/30 12:40:57;;;;;;;;;;;;;;;18.95;50.86;103255.69;7400442;19;1874;-81
2024/01/30 12:43:28;;;;;;;;;;;;;;;18.86;51.32;103254.31;7405998;19;1884;-73
2024/01/30 12:45:57;;;;;;;;;;;;;;;18.93;51.07;103243.31;7403610;19;1534;-81
2024/01/30 12:48:29;;;;;;;;;;;;;;;18.86;51.30;103231.97;7403697;19;1533;-73
2024/01/30 12:50:58;;;;;;;;;;;;;;;18.83;51.58;103248.25;7399452;19;1331;-80
2024/01/30 12:53:28;;;;;;;;;;;;;;;18.86;51.51;103232.88;7401476;19;1734;-73
2024/01/30 12:56:05;;;;;;;;;;;;;;;18.81;51.52;103220.63;7403199;19;1328;-80
2024/01/30 12:58:34;;;;;;;;;;;;;;;18.93;51.56;103233.44;7405665;19;1132;-81
2024/01/30 13:01:02;;;;;;;;;;;;;;;18.87;51.67;103255.19;7392735;19;1824;-81